Wes Sellars — WDF9302 — position and weather

sailwx.info

Track history (hours):
 
Tides and Currents Weather Stations Pressure Air Temp Water Temp Dewpoint Dewpoint Depression Visibility Wind Speed Wind Dir Waves Ship Positions

Wes Sellars

Owner: Florida Marine, LLC, Mandeville, LA. More information available from US FCC via Universal Licensing System and Coast Guard Vessel Documentation Center.

Last reported at 2017-Dec-08 23:00 UTC. Time now 2017-Dec-13 05:28 UTC.
Position N 29°22' W 094°53'.

Length 27 m; draft 2.9 m.

Type: Towing. MMSI: 367503760.

Date/timePositionNaut miles runAvg speedWind from/ knotsBaromVisibWave heightAir tempDewpointWater temp
2017-Dec-08 23:00N 29°22' W 094°53'0 0.0
2017-Dec-07 16:04N 29°22' W 094°53'  
2017-Dec-04 02:16N 30°05' W 094°04'0 0.0
2017-Dec-04 01:16N 30°05' W 094°04'0 0.0
2017-Dec-03 17:11N 30°05' W 094°04'0 0.0
2017-Dec-03 15:43N 30°05' W 094°04'0 0.0
2017-Dec-03 15:30N 30°05' W 094°04'  
2017-Nov-30 21:06N 30°03' W 093°43'1 4.5
2017-Nov-30 20:53N 30°04' W 093°42'1 3.4
2017-Nov-30 20:30N 30°04' W 093°40'2 4.6
2017-Nov-30 20:00N 30°04' W 093°38'3 5.0
2017-Nov-30 19:30N 30°04' W 093°35'2 4.8
2017-Nov-30 19:00N 30°04' W 093°32'2 4.9
2017-Nov-30 18:30N 30°04' W 093°29'2 4.9
2017-Nov-30 18:00N 30°04' W 093°26'2 4.9
2017-Nov-30 17:30N 30°04' W 093°23'2 3.7
2017-Nov-30 17:00N 30°04' W 093°21'2 3.4
2017-Nov-30 16:30N 30°05' W 093°20'1 1.9
2017-Nov-30 16:00N 30°06' W 093°19'1 1.8
2017-Nov-30 15:30N 30°05' W 093°20'0 0.1
2017-Nov-30 15:00N 30°05' W 093°20'0 0.0
2017-Nov-30 14:30N 30°05' W 093°20'0 0.0
2017-Nov-30 14:00N 30°05' W 093°20'0 0.0
2017-Nov-30 13:30N 30°05' W 093°20'0 0.8
2017-Nov-30 13:00N 30°05' W 093°20'2 3.1
2017-Nov-30 12:30N 30°07' W 093°20'2 3.0
2017-Nov-30 12:00N 30°08' W 093°19'0 0.1
2017-Nov-30 11:30N 30°08' W 093°19'0 0.0
2017-Nov-30 11:00N 30°08' W 093°19'0 0.0
2017-Nov-30 10:30N 30°08' W 093°19'0 0.0
2017-Nov-30 10:00N 30°08' W 093°19'0 0.0
2017-Nov-30 09:30N 30°08' W 093°19'0 0.0
2017-Nov-30 09:00N 30°08' W 093°19'0 0.0
2017-Nov-30 08:30N 30°08' W 093°19'0 0.0
2017-Nov-30 08:00N 30°08' W 093°19'0 0.0
2017-Nov-30 07:30N 30°08' W 093°19'0 0.0
2017-Nov-30 07:00N 30°08' W 093°19'0 0.0
2017-Nov-30 06:30N 30°08' W 093°19'0 0.0
2017-Nov-30 06:00N 30°08' W 093°19'0 0.0
2017-Nov-30 05:30N 30°08' W 093°19'0 0.0
2017-Nov-30 05:00N 30°08' W 093°19'0 0.0
2017-Nov-30 04:30N 30°08' W 093°19'0 0.0
2017-Nov-30 04:00N 30°08' W 093°19'0 0.0
2017-Nov-30 03:30N 30°08' W 093°19'0 0.0
2017-Nov-30 03:00N 30°08' W 093°19'0 0.0
2017-Nov-30 02:30N 30°08' W 093°19'0 0.0
2017-Nov-30 02:00N 30°08' W 093°19'0 0.0
2017-Nov-30 01:30N 30°08' W 093°19'0 0.0
2017-Nov-30 01:00N 30°08' W 093°19'0 0.0
2017-Nov-30 00:30N 30°08' W 093°19'0 0.0
2017-Nov-30 00:00N 30°08' W 093°19'0 0.0
2017-Nov-29 23:30N 30°08' W 093°19'0 0.0
2017-Nov-29 23:00N 30°08' W 093°19'0 0.0
2017-Nov-29 22:30N 30°08' W 093°19'0 0.0
2017-Nov-29 22:00N 30°08' W 093°19'0 0.0
2017-Nov-29 21:30N 30°08' W 093°19'0 0.0
2017-Nov-29 21:00N 30°08' W 093°19'0 0.0
2017-Nov-29 20:30N 30°08' W 093°19'0 0.0
2017-Nov-29 20:00N 30°08' W 093°19'0 0.0
2017-Nov-29 19:30N 30°08' W 093°19'0 0.0
2017-Nov-29 19:00N 30°08' W 093°19'0 0.0
2017-Nov-29 18:30N 30°08' W 093°19'0 0.0
2017-Nov-29 18:00N 30°08' W 093°19'0 0.0
2017-Nov-29 17:30N 30°08' W 093°19'0 0.0
2017-Nov-29 17:00N 30°08' W 093°19'0 0.1
2017-Nov-29 16:30N 30°08' W 093°19'0 0.6
2017-Nov-29 16:00N 30°08' W 093°20'3 6.0
2017-Nov-29 15:30N 30°05' W 093°20'1 1.5
2017-Nov-29 15:00N 30°04' W 093°21'0 0.0
2017-Nov-29 14:30N 30°04' W 093°21'0 0.0
2017-Nov-29 14:00N 30°04' W 093°21'0 0.0
2017-Nov-29 13:30N 30°04' W 093°21'0 0.0
2017-Nov-29 13:00N 30°04' W 093°21'0 0.0
2017-Nov-29 12:30N 30°04' W 093°21'0 0.0
2017-Nov-29 12:00N 30°04' W 093°21'0 0.0
2017-Nov-29 11:30N 30°04' W 093°21'0 0.0
2017-Nov-29 11:00N 30°04' W 093°21'0 0.0
2017-Nov-29 10:30N 30°04' W 093°21'0 0.0
2017-Nov-29 10:00N 30°04' W 093°21'0 0.0
2017-Nov-29 09:30N 30°04' W 093°21'0 0.0
2017-Nov-29 09:00N 30°04' W 093°21'0 0.0
2017-Nov-29 08:30N 30°04' W 093°21'0 0.0
2017-Nov-29 08:00N 30°04' W 093°21'0 0.0
2017-Nov-29 07:30N 30°04' W 093°21'0 0.0
2017-Nov-29 07:00N 30°04' W 093°21'0 0.0
2017-Nov-29 06:30N 30°04' W 093°21'0 0.0
2017-Nov-29 06:00N 30°04' W 093°21'0 0.0
2017-Nov-29 05:30N 30°04' W 093°21'0 0.0
2017-Nov-29 05:00N 30°04' W 093°21'0 0.0
2017-Nov-29 04:30N 30°04' W 093°21'0 0.0
2017-Nov-29 04:00N 30°04' W 093°20'0 0.0
2017-Nov-29 03:30N 30°04' W 093°20'0 0.0
2017-Nov-29 03:00N 30°04' W 093°20'0 0.0
2017-Nov-29 02:30N 30°04' W 093°20'0 0.0
2017-Nov-29 02:00N 30°04' W 093°20'0 0.0
2017-Nov-29 01:30N 30°04' W 093°20'0 0.0
2017-Nov-29 01:00N 30°04' W 093°20'0 0.0
2017-Nov-29 00:30N 30°04' W 093°20'0 0.0
2017-Nov-29 00:00N 30°04' W 093°20'0 0.0
2017-Nov-28 23:30N 30°04' W 093°20'1 1.9
2017-Nov-28 23:00N 30°05' W 093°20'  
Track history (hours):
 
Tides and Currents Weather Stations Pressure Air Temp Water Temp Dewpoint Dewpoint Depression Visibility Wind Speed Wind Dir Waves Ship Positions

Wes Sellars

Owner: Florida Marine, LLC, Mandeville, LA. More information available from US FCC via Universal Licensing System and Coast Guard Vessel Documentation Center.

Last reported at 2017-Dec-08 23:00 UTC. Time now 2017-Dec-13 05:28 UTC.
Position N 29°22' W 094°53'.

Length 27 m; draft 2.9 m.

Type: Towing. MMSI: 367503760.

Date/timePositionNaut miles runAvg speedWind from/ knotsBaromVisibWave heightAir tempDewpointWater temp
2017-Dec-08 23:00N 29°22' W 094°53'0 0.0
2017-Dec-07 16:04N 29°22' W 094°53'  
2017-Dec-04 02:16N 30°05' W 094°04'0 0.0
2017-Dec-04 01:16N 30°05' W 094°04'0 0.0
2017-Dec-03 17:11N 30°05' W 094°04'0 0.0
2017-Dec-03 15:43N 30°05' W 094°04'0 0.0
2017-Dec-03 15:30N 30°05' W 094°04'  
2017-Nov-30 21:06N 30°03' W 093°43'1 4.5
2017-Nov-30 20:53N 30°04' W 093°42'1 3.4
2017-Nov-30 20:30N 30°04' W 093°40'2 4.6
2017-Nov-30 20:00N 30°04' W 093°38'3 5.0
2017-Nov-30 19:30N 30°04' W 093°35'2 4.8
2017-Nov-30 19:00N 30°04' W 093°32'2 4.9
2017-Nov-30 18:30N 30°04' W 093°29'2 4.9
2017-Nov-30 18:00N 30°04' W 093°26'2 4.9
2017-Nov-30 17:30N 30°04' W 093°23'2 3.7
2017-Nov-30 17:00N 30°04' W 093°21'2 3.4
2017-Nov-30 16:30N 30°05' W 093°20'1 1.9
2017-Nov-30 16:00N 30°06' W 093°19'1 1.8
2017-Nov-30 15:30N 30°05' W 093°20'0 0.1
2017-Nov-30 15:00N 30°05' W 093°20'0 0.0
2017-Nov-30 14:30N 30°05' W 093°20'0 0.0
2017-Nov-30 14:00N 30°05' W 093°20'0 0.0
2017-Nov-30 13:30N 30°05' W 093°20'0 0.8
2017-Nov-30 13:00N 30°05' W 093°20'2 3.1
2017-Nov-30 12:30N 30°07' W 093°20'2 3.0
2017-Nov-30 12:00N 30°08' W 093°19'0 0.1
2017-Nov-30 11:30N 30°08' W 093°19'0 0.0
2017-Nov-30 11:00N 30°08' W 093°19'0 0.0
2017-Nov-30 10:30N 30°08' W 093°19'0 0.0
2017-Nov-30 10:00N 30°08' W 093°19'0 0.0
2017-Nov-30 09:30N 30°08' W 093°19'0 0.0
2017-Nov-30 09:00N 30°08' W 093°19'0 0.0
2017-Nov-30 08:30N 30°08' W 093°19'0 0.0
2017-Nov-30 08:00N 30°08' W 093°19'0 0.0
2017-Nov-30 07:30N 30°08' W 093°19'0 0.0
2017-Nov-30 07:00N 30°08' W 093°19'0 0.0
2017-Nov-30 06:30N 30°08' W 093°19'0 0.0
2017-Nov-30 06:00N 30°08' W 093°19'0 0.0
2017-Nov-30 05:30N 30°08' W 093°19'0 0.0
2017-Nov-30 05:00N 30°08' W 093°19'0 0.0
2017-Nov-30 04:30N 30°08' W 093°19'0 0.0
2017-Nov-30 04:00N 30°08' W 093°19'0 0.0
2017-Nov-30 03:30N 30°08' W 093°19'0 0.0
2017-Nov-30 03:00N 30°08' W 093°19'0 0.0
2017-Nov-30 02:30N 30°08' W 093°19'0 0.0
2017-Nov-30 02:00N 30°08' W 093°19'0 0.0
2017-Nov-30 01:30N 30°08' W 093°19'0 0.0
2017-Nov-30 01:00N 30°08' W 093°19'0 0.0
2017-Nov-30 00:30N 30°08' W 093°19'0 0.0
2017-Nov-30 00:00N 30°08' W 093°19'0 0.0
2017-Nov-29 23:30N 30°08' W 093°19'0 0.0
2017-Nov-29 23:00N 30°08' W 093°19'0 0.0
2017-Nov-29 22:30N 30°08' W 093°19'0 0.0
2017-Nov-29 22:00N 30°08' W 093°19'0 0.0
2017-Nov-29 21:30N 30°08' W 093°19'0 0.0
2017-Nov-29 21:00N 30°08' W 093°19'0 0.0
2017-Nov-29 20:30N 30°08' W 093°19'0 0.0
2017-Nov-29 20:00N 30°08' W 093°19'0 0.0
2017-Nov-29 19:30N 30°08' W 093°19'0 0.0
2017-Nov-29 19:00N 30°08' W 093°19'0 0.0
2017-Nov-29 18:30N 30°08' W 093°19'0 0.0
2017-Nov-29 18:00N 30°08' W 093°19'0 0.0
2017-Nov-29 17:30N 30°08' W 093°19'0 0.0
2017-Nov-29 17:00N 30°08' W 093°19'0 0.1
2017-Nov-29 16:30N 30°08' W 093°19'0 0.6
2017-Nov-29 16:00N 30°08' W 093°20'3 6.0
2017-Nov-29 15:30N 30°05' W 093°20'1 1.5
2017-Nov-29 15:00N 30°04' W 093°21'0 0.0
2017-Nov-29 14:30N 30°04' W 093°21'0 0.0
2017-Nov-29 14:00N 30°04' W 093°21'0 0.0
2017-Nov-29 13:30N 30°04' W 093°21'0 0.0
2017-Nov-29 13:00N 30°04' W 093°21'0 0.0
2017-Nov-29 12:30N 30°04' W 093°21'0 0.0
2017-Nov-29 12:00N 30°04' W 093°21'0 0.0
2017-Nov-29 11:30N 30°04' W 093°21'0 0.0
2017-Nov-29 11:00N 30°04' W 093°21'0 0.0
2017-Nov-29 10:30N 30°04' W 093°21'0 0.0
2017-Nov-29 10:00N 30°04' W 093°21'0 0.0
2017-Nov-29 09:30N 30°04' W 093°21'0 0.0
2017-Nov-29 09:00N 30°04' W 093°21'0 0.0
2017-Nov-29 08:30N 30°04' W 093°21'0 0.0
2017-Nov-29 08:00N 30°04' W 093°21'0 0.0
2017-Nov-29 07:30N 30°04' W 093°21'0 0.0
2017-Nov-29 07:00N 30°04' W 093°21'0 0.0
2017-Nov-29 06:30N 30°04' W 093°21'0 0.0
2017-Nov-29 06:00N 30°04' W 093°21'0 0.0
2017-Nov-29 05:30N 30°04' W 093°21'0 0.0
2017-Nov-29 05:00N 30°04' W 093°21'0 0.0
2017-Nov-29 04:30N 30°04' W 093°21'0 0.0
2017-Nov-29 04:00N 30°04' W 093°20'0 0.0
2017-Nov-29 03:30N 30°04' W 093°20'0 0.0
2017-Nov-29 03:00N 30°04' W 093°20'0 0.0
2017-Nov-29 02:30N 30°04' W 093°20'0 0.0
2017-Nov-29 02:00N 30°04' W 093°20'0 0.0
2017-Nov-29 01:30N 30°04' W 093°20'0 0.0
2017-Nov-29 01:00N 30°04' W 093°20'0 0.0
2017-Nov-29 00:30N 30°04' W 093°20'0 0.0
2017-Nov-29 00:00N 30°04' W 093°20'0 0.0
2017-Nov-28 23:30N 30°04' W 093°20'1 1.9
2017-Nov-28 23:00N 30°05' W 093°20'  

Dump ship's entire track history